sensor_id;sensor_type;location;lat;lon;timestamp;P1;durP1;ratioP1;P2;durP2;ratioP2
30147;SDS011;16960;49.404;8.248;2023-02-28T00:00:09;0.90;;;0.80;;
30147;SDS011;16960;49.404;8.248;2023-02-28T00:02:37;0.97;;;0.87;;
30147;SDS011;16960;49.404;8.248;2023-02-28T00:05:04;1.27;;;0.97;;
30147;SDS011;16960;49.404;8.248;2023-02-28T00:07:33;0.97;;;0.70;;
30147;SDS011;16960;49.404;8.248;2023-02-28T00:10:00;1.33;;;0.73;;
30147;SDS011;16960;49.404;8.248;2023-02-28T00:12:27;1.00;;;0.63;;
30147;SDS011;16960;49.404;8.248;2023-02-28T00:14:55;0.80;;;0.47;;
30147;SDS011;16960;49.404;8.248;2023-02-28T00:17:22;0.60;;;0.60;;
30147;SDS011;16960;49.404;8.248;2023-02-28T00:19:49;1.20;;;0.70;;
30147;SDS011;16960;49.404;8.248;2023-02-28T00:22:18;0.70;;;0.67;;
30147;SDS011;16960;49.404;8.248;2023-02-28T00:24:46;1.20;;;1.07;;
30147;SDS011;16960;49.404;8.248;2023-02-28T00:27:13;1.20;;;0.97;;
30147;SDS011;16960;49.404;8.248;2023-02-28T00:29:40;0.90;;;0.70;;
30147;SDS011;16960;49.404;8.248;2023-02-28T00:32:09;0.63;;;0.60;;
30147;SDS011;16960;49.404;8.248;2023-02-28T00:34:35;0.80;;;0.70;;
30147;SDS011;16960;49.404;8.248;2023-02-28T00:37:03;1.07;;;0.80;;
30147;SDS011;16960;49.404;8.248;2023-02-28T00:39:33;2.30;;;0.90;;
30147;SDS011;16960;49.404;8.248;2023-02-28T00:42:01;0.70;;;0.70;;
30147;SDS011;16960;49.404;8.248;2023-02-28T00:44:29;1.33;;;0.63;;
30147;SDS011;16960;49.404;8.248;2023-02-28T00:46:56;0.93;;;0.83;;
30147;SDS011;16960;49.404;8.248;2023-02-28T00:49:25;1.03;;;0.70;;
30147;SDS011;16960;49.404;8.248;2023-02-28T00:51:53;0.97;;;0.83;;
30147;SDS011;16960;49.404;8.248;2023-02-28T00:54:21;0.77;;;0.60;;
30147;SDS011;16960;49.404;8.248;2023-02-28T00:56:48;0.80;;;0.60;;
30147;SDS011;16960;49.404;8.248;2023-02-28T00:59:15;1.77;;;0.80;;
30147;SDS011;16960;49.404;8.248;2023-02-28T01:01:44;1.40;;;0.80;;
30147;SDS011;16960;49.404;8.248;2023-02-28T01:04:12;0.53;;;0.50;;
30147;SDS011;16960;49.404;8.248;2023-02-28T01:06:41;1.03;;;0.80;;
30147;SDS011;16960;49.404;8.248;2023-02-28T01:09:08;0.50;;;0.50;;
30147;SDS011;16960;49.404;8.248;2023-02-28T01:11:35;1.00;;;0.90;;
30147;SDS011;16960;49.404;8.248;2023-02-28T01:14:03;0.80;;;0.77;;
30147;SDS011;16960;49.404;8.248;2023-02-28T01:16:30;1.27;;;0.90;;
30147;SDS011;16960;49.404;8.248;2023-02-28T01:18:57;0.80;;;0.70;;
30147;SDS011;16960;49.404;8.248;2023-02-28T01:21:24;1.00;;;0.80;;
30147;SDS011;16960;49.404;8.248;2023-02-28T01:23:52;0.80;;;0.70;;
30147;SDS011;16960;49.404;8.248;2023-02-28T01:26:22;1.20;;;0.80;;
30147;SDS011;16960;49.404;8.248;2023-02-28T01:28:50;0.80;;;0.80;;
30147;SDS011;16960;49.404;8.248;2023-02-28T01:31:18;1.30;;;0.87;;
30147;SDS011;16960;49.404;8.248;2023-02-28T01:33:46;1.07;;;0.80;;
30147;SDS011;16960;49.404;8.248;2023-02-28T01:36:14;1.40;;;0.73;;
30147;SDS011;16960;49.404;8.248;2023-02-28T01:38:43;1.10;;;0.90;;
30147;SDS011;16960;49.404;8.248;2023-02-28T01:41:14;1.27;;;0.87;;
30147;SDS011;16960;49.404;8.248;2023-02-28T01:43:52;0.90;;;0.90;;
30147;SDS011;16960;49.404;8.248;2023-02-28T01:46:30;0.60;;;0.60;;
30147;SDS011;16960;49.404;8.248;2023-02-28T01:49:00;0.70;;;0.70;;
30147;SDS011;16960;49.404;8.248;2023-02-28T01:51:33;1.13;;;0.67;;
30147;SDS011;16960;49.404;8.248;2023-02-28T01:54:05;0.60;;;0.60;;
30147;SDS011;16960;49.404;8.248;2023-02-28T01:56:41;1.10;;;0.90;;
30147;SDS011;16960;49.404;8.248;2023-02-28T01:59:13;0.80;;;0.80;;
30147;SDS011;16960;49.404;8.248;2023-02-28T02:01:46;2.50;;;1.33;;
30147;SDS011;16960;49.404;8.248;2023-02-28T02:04:13;0.80;;;0.70;;
30147;SDS011;16960;49.404;8.248;2023-02-28T02:06:42;1.10;;;1.00;;
30147;SDS011;16960;49.404;8.248;2023-02-28T02:09:12;1.67;;;0.70;;
30147;SDS011;16960;49.404;8.248;2023-02-28T02:11:41;1.00;;;0.73;;
30147;SDS011;16960;49.404;8.248;2023-02-28T02:14:12;0.67;;;0.67;;
30147;SDS011;16960;49.404;8.248;2023-02-28T02:16:52;0.73;;;0.70;;
30147;SDS011;16960;49.404;8.248;2023-02-28T02:19:46;0.80;;;0.70;;
30147;SDS011;16960;49.404;8.248;2023-02-28T02:25:36;0.80;;;0.80;;
30147;SDS011;16960;49.404;8.248;2023-02-28T02:28:21;1.60;;;1.00;;
30147;SDS011;16960;49.404;8.248;2023-02-28T02:31:06;1.20;;;1.00;;
30147;SDS011;16960;49.404;8.248;2023-02-28T02:36:57;1.20;;;0.90;;
30147;SDS011;16960;49.404;8.248;2023-02-28T02:39:30;0.80;;;0.80;;
30147;SDS011;16960;49.404;8.248;2023-02-28T02:42:03;0.90;;;0.90;;
30147;SDS011;16960;49.404;8.248;2023-02-28T02:44:39;0.77;;;0.70;;
30147;SDS011;16960;49.404;8.248;2023-02-28T02:47:10;0.70;;;0.70;;
30147;SDS011;16960;49.404;8.248;2023-02-28T02:49:42;1.27;;;1.10;;
30147;SDS011;16960;49.404;8.248;2023-02-28T02:52:12;1.10;;;1.00;;
30147;SDS011;16960;49.404;8.248;2023-02-28T02:54:43;1.00;;;0.90;;
30147;SDS011;16960;49.404;8.248;2023-02-28T02:57:13;1.30;;;1.13;;
30147;SDS011;16960;49.404;8.248;2023-02-28T02:59:46;1.30;;;0.97;;
30147;SDS011;16960;49.404;8.248;2023-02-28T03:02:14;1.10;;;0.80;;
30147;SDS011;16960;49.404;8.248;2023-02-28T03:04:45;1.20;;;0.73;;
30147;SDS011;16960;49.404;8.248;2023-02-28T03:07:16;0.97;;;0.63;;
30147;SDS011;16960;49.404;8.248;2023-02-28T03:09:49;0.60;;;0.60;;
30147;SDS011;16960;49.404;8.248;2023-02-28T03:12:17;1.37;;;1.00;;
30147;SDS011;16960;49.404;8.248;2023-02-28T03:14:48;0.80;;;0.80;;
30147;SDS011;16960;49.404;8.248;2023-02-28T03:17:36;1.43;;;1.00;;
30147;SDS011;16960;49.404;8.248;2023-02-28T03:20:22;1.80;;;0.93;;
30147;SDS011;16960;49.404;8.248;2023-02-28T03:22:59;0.83;;;0.83;;
30147;SDS011;16960;49.404;8.248;2023-02-28T03:25:36;1.23;;;1.10;;
30147;SDS011;16960;49.404;8.248;2023-02-28T03:28:08;1.03;;;0.83;;
30147;SDS011;16960;49.404;8.248;2023-02-28T03:30:43;1.10;;;0.90;;
30147;SDS011;16960;49.404;8.248;2023-02-28T03:33:19;0.83;;;0.83;;
30147;SDS011;16960;49.404;8.248;2023-02-28T03:35:51;1.03;;;0.90;;
30147;SDS011;16960;49.404;8.248;2023-02-28T03:38:22;1.20;;;0.93;;
30147;SDS011;16960;49.404;8.248;2023-02-28T03:40:55;1.30;;;1.03;;
30147;SDS011;16960;49.404;8.248;2023-02-28T03:43:29;0.93;;;0.77;;
30147;SDS011;16960;49.404;8.248;2023-02-28T03:45:59;0.90;;;0.70;;
30147;SDS011;16960;49.404;8.248;2023-02-28T03:48:31;1.00;;;0.90;;
30147;SDS011;16960;49.404;8.248;2023-02-28T03:51:06;0.97;;;0.90;;
30147;SDS011;16960;49.404;8.248;2023-02-28T03:53:37;0.87;;;0.87;;
30147;SDS011;16960;49.404;8.248;2023-02-28T03:56:09;1.00;;;0.70;;
30147;SDS011;16960;49.404;8.248;2023-02-28T03:58:42;0.90;;;0.90;;
30147;SDS011;16960;49.404;8.248;2023-02-28T04:01:15;1.27;;;1.00;;
30147;SDS011;16960;49.404;8.248;2023-02-28T04:03:47;0.97;;;0.90;;
30147;SDS011;16960;49.404;8.248;2023-02-28T04:06:17;1.17;;;1.00;;
30147;SDS011;16960;49.404;8.248;2023-02-28T04:08:46;1.03;;;0.80;;
30147;SDS011;16960;49.404;8.248;2023-02-28T04:11:16;2.20;;;1.00;;
30147;SDS011;16960;49.404;8.248;2023-02-28T04:13:47;0.80;;;0.80;;
30147;SDS011;16960;49.404;8.248;2023-02-28T04:16:14;2.00;;;1.00;;
30147;SDS011;16960;49.404;8.248;2023-02-28T04:18:41;1.43;;;1.00;;
30147;SDS011;16960;49.404;8.248;2023-02-28T04:21:09;0.90;;;0.80;;
30147;SDS011;16960;49.404;8.248;2023-02-28T04:23:38;1.23;;;0.80;;
30147;SDS011;16960;49.404;8.248;2023-02-28T04:26:06;1.37;;;1.20;;
30147;SDS011;16960;49.404;8.248;2023-02-28T04:28:33;1.20;;;0.90;;
30147;SDS011;16960;49.404;8.248;2023-02-28T04:31:01;0.70;;;0.70;;
30147;SDS011;16960;49.404;8.248;2023-02-28T04:33:29;1.07;;;0.87;;
30147;SDS011;16960;49.404;8.248;2023-02-28T04:35:58;1.60;;;0.97;;
30147;SDS011;16960;49.404;8.248;2023-02-28T04:38:26;0.90;;;0.70;;
30147;SDS011;16960;49.404;8.248;2023-02-28T04:40:56;1.30;;;1.00;;
30147;SDS011;16960;49.404;8.248;2023-02-28T04:43:23;0.80;;;0.73;;
30147;SDS011;16960;49.404;8.248;2023-02-28T04:45:51;0.83;;;0.73;;
30147;SDS011;16960;49.404;8.248;2023-02-28T04:48:19;0.97;;;0.73;;
30147;SDS011;16960;49.404;8.248;2023-02-28T04:50:46;1.17;;;1.00;;
30147;SDS011;16960;49.404;8.248;2023-02-28T04:53:13;1.00;;;0.93;;
30147;SDS011;16960;49.404;8.248;2023-02-28T04:55:40;1.70;;;1.07;;
30147;SDS011;16960;49.404;8.248;2023-02-28T04:58:08;0.83;;;0.63;;
30147;SDS011;16960;49.404;8.248;2023-02-28T05:00:35;1.33;;;1.23;;
30147;SDS011;16960;49.404;8.248;2023-02-28T05:03:02;1.17;;;0.90;;
30147;SDS011;16960;49.404;8.248;2023-02-28T05:05:29;1.63;;;0.83;;
30147;SDS011;16960;49.404;8.248;2023-02-28T05:07:56;1.00;;;0.90;;
30147;SDS011;16960;49.404;8.248;2023-02-28T05:10:23;0.67;;;0.67;;
30147;SDS011;16960;49.404;8.248;2023-02-28T05:12:50;0.90;;;0.80;;
30147;SDS011;16960;49.404;8.248;2023-02-28T05:15:18;1.20;;;1.10;;
30147;SDS011;16960;49.404;8.248;2023-02-28T05:17:45;1.07;;;0.90;;
30147;SDS011;16960;49.404;8.248;2023-02-28T05:20:12;3.50;;;1.10;;
30147;SDS011;16960;49.404;8.248;2023-02-28T05:22:39;1.00;;;0.70;;
30147;SDS011;16960;49.404;8.248;2023-02-28T05:25:08;0.93;;;0.83;;
30147;SDS011;16960;49.404;8.248;2023-02-28T05:27:37;1.73;;;0.90;;
30147;SDS011;16960;49.404;8.248;2023-02-28T05:30:04;1.07;;;0.70;;
30147;SDS011;16960;49.404;8.248;2023-02-28T05:32:36;1.20;;;0.90;;
30147;SDS011;16960;49.404;8.248;2023-02-28T05:35:04;1.20;;;1.07;;
30147;SDS011;16960;49.404;8.248;2023-02-28T05:37:31;0.90;;;0.80;;
30147;SDS011;16960;49.404;8.248;2023-02-28T05:39:58;1.00;;;0.80;;
30147;SDS011;16960;49.404;8.248;2023-02-28T05:42:25;0.83;;;0.80;;
30147;SDS011;16960;49.404;8.248;2023-02-28T05:44:52;1.53;;;1.07;;
30147;SDS011;16960;49.404;8.248;2023-02-28T05:47:19;0.87;;;0.77;;
30147;SDS011;16960;49.404;8.248;2023-02-28T05:49:47;1.00;;;0.80;;
30147;SDS011;16960;49.404;8.248;2023-02-28T05:52:14;1.03;;;0.80;;
30147;SDS011;16960;49.404;8.248;2023-02-28T05:54:41;1.30;;;0.90;;
30147;SDS011;16960;49.404;8.248;2023-02-28T05:57:07;1.73;;;0.90;;
30147;SDS011;16960;49.404;8.248;2023-02-28T05:59:34;1.27;;;1.17;;
30147;SDS011;16960;49.404;8.248;2023-02-28T06:02:04;1.17;;;0.70;;
30147;SDS011;16960;49.404;8.248;2023-02-28T06:04:32;0.87;;;0.73;;
30147;SDS011;16960;49.404;8.248;2023-02-28T06:07:00;0.93;;;0.93;;
30147;SDS011;16960;49.404;8.248;2023-02-28T06:09:28;1.00;;;0.90;;
30147;SDS011;16960;49.404;8.248;2023-02-28T06:11:57;1.80;;;0.90;;
30147;SDS011;16960;49.404;8.248;2023-02-28T06:14:24;0.80;;;0.67;;
30147;SDS011;16960;49.404;8.248;2023-02-28T06:16:51;1.00;;;0.90;;
30147;SDS011;16960;49.404;8.248;2023-02-28T06:19:18;1.20;;;1.10;;
30147;SDS011;16960;49.404;8.248;2023-02-28T06:21:48;0.80;;;0.80;;
30147;SDS011;16960;49.404;8.248;2023-02-28T06:24:18;1.23;;;1.03;;
30147;SDS011;16960;49.404;8.248;2023-02-28T06:26:45;1.17;;;1.00;;
30147;SDS011;16960;49.404;8.248;2023-02-28T06:29:12;0.93;;;0.90;;
30147;SDS011;16960;49.404;8.248;2023-02-28T06:31:43;1.17;;;1.00;;
30147;SDS011;16960;49.404;8.248;2023-02-28T06:34:10;1.30;;;1.20;;
30147;SDS011;16960;49.404;8.248;2023-02-28T06:36:37;1.13;;;1.03;;
30147;SDS011;16960;49.404;8.248;2023-02-28T06:39:04;1.43;;;0.90;;
30147;SDS011;16960;49.404;8.248;2023-02-28T06:41:33;1.10;;;1.00;;
30147;SDS011;16960;49.404;8.248;2023-02-28T06:44:02;1.10;;;1.00;;
30147;SDS011;16960;49.404;8.248;2023-02-28T06:46:30;4.80;;;0.90;;
30147;SDS011;16960;49.404;8.248;2023-02-28T06:48:57;3.60;;;1.07;;
30147;SDS011;16960;49.404;8.248;2023-02-28T06:51:24;2.10;;;1.00;;
30147;SDS011;16960;49.404;8.248;2023-02-28T06:53:52;2.47;;;1.00;;
30147;SDS011;16960;49.404;8.248;2023-02-28T06:56:19;2.40;;;1.43;;
30147;SDS011;16960;49.404;8.248;2023-02-28T06:58:47;2.90;;;1.97;;
30147;SDS011;16960;49.404;8.248;2023-02-28T07:01:16;2.30;;;1.10;;
30147;SDS011;16960;49.404;8.248;2023-02-28T07:03:43;1.67;;;1.00;;
30147;SDS011;16960;49.404;8.248;2023-02-28T07:06:11;1.50;;;1.20;;
30147;SDS011;16960;49.404;8.248;2023-02-28T07:08:38;1.50;;;1.07;;
30147;SDS011;16960;49.404;8.248;2023-02-28T07:11:06;2.30;;;1.43;;
30147;SDS011;16960;49.404;8.248;2023-02-28T07:13:33;1.93;;;1.00;;
30147;SDS011;16960;49.404;8.248;2023-02-28T07:16:02;1.57;;;1.30;;
30147;SDS011;16960;49.404;8.248;2023-02-28T07:18:31;1.67;;;1.33;;
30147;SDS011;16960;49.404;8.248;2023-02-28T07:21:01;1.60;;;1.50;;
30147;SDS011;16960;49.404;8.248;2023-02-28T07:23:28;2.30;;;1.20;;
30147;SDS011;16960;49.404;8.248;2023-02-28T07:25:55;2.23;;;1.57;;
30147;SDS011;16960;49.404;8.248;2023-02-28T07:28:22;3.17;;;1.30;;
30147;SDS011;16960;49.404;8.248;2023-02-28T07:30:50;3.30;;;1.63;;
30147;SDS011;16960;49.404;8.248;2023-02-28T07:33:18;1.67;;;1.00;;
30147;SDS011;16960;49.404;8.248;2023-02-28T07:35:45;1.90;;;1.60;;
30147;SDS011;16960;49.404;8.248;2023-02-28T07:38:12;3.10;;;1.77;;
30147;SDS011;16960;49.404;8.248;2023-02-28T07:40:39;2.20;;;1.70;;
30147;SDS011;16960;49.404;8.248;2023-02-28T07:43:06;1.33;;;1.23;;
30147;SDS011;16960;49.404;8.248;2023-02-28T07:45:33;2.37;;;1.50;;
30147;SDS011;16960;49.404;8.248;2023-02-28T07:48:01;1.73;;;1.60;;
30147;SDS011;16960;49.404;8.248;2023-02-28T07:50:29;2.50;;;1.70;;
30147;SDS011;16960;49.404;8.248;2023-02-28T07:52:57;2.70;;;2.13;;
30147;SDS011;16960;49.404;8.248;2023-02-28T07:55:24;1.50;;;1.40;;
30147;SDS011;16960;49.404;8.248;2023-02-28T07:57:51;1.83;;;1.70;;
30147;SDS011;16960;49.404;8.248;2023-02-28T08:00:19;1.77;;;1.40;;
30147;SDS011;16960;49.404;8.248;2023-02-28T08:02:46;1.60;;;1.50;;
30147;SDS011;16960;49.404;8.248;2023-02-28T08:05:13;1.60;;;1.50;;
30147;SDS011;16960;49.404;8.248;2023-02-28T08:07:42;2.10;;;1.53;;
30147;SDS011;16960;49.404;8.248;2023-02-28T08:10:09;1.80;;;1.43;;
30147;SDS011;16960;49.404;8.248;2023-02-28T08:12:37;2.13;;;1.80;;
30147;SDS011;16960;49.404;8.248;2023-02-28T08:15:04;2.23;;;1.70;;
30147;SDS011;16960;49.404;8.248;2023-02-28T08:17:32;2.53;;;1.67;;
30147;SDS011;16960;49.404;8.248;2023-02-28T08:19:59;2.57;;;1.67;;
30147;SDS011;16960;49.404;8.248;2023-02-28T08:22:26;2.80;;;1.77;;
30147;SDS011;16960;49.404;8.248;2023-02-28T08:24:54;1.83;;;1.50;;
30147;SDS011;16960;49.404;8.248;2023-02-28T08:27:21;2.80;;;1.90;;
30147;SDS011;16960;49.404;8.248;2023-02-28T08:29:48;1.77;;;1.67;;
30147;SDS011;16960;49.404;8.248;2023-02-28T08:32:15;2.67;;;1.73;;
30147;SDS011;16960;49.404;8.248;2023-02-28T08:34:42;2.30;;;1.70;;
30147;SDS011;16960;49.404;8.248;2023-02-28T08:37:09;2.10;;;1.90;;
30147;SDS011;16960;49.404;8.248;2023-02-28T08:39:36;2.23;;;2.03;;
30147;SDS011;16960;49.404;8.248;2023-02-28T08:42:05;2.13;;;1.90;;
30147;SDS011;16960;49.404;8.248;2023-02-28T08:44:32;2.33;;;1.77;;
30147;SDS011;16960;49.404;8.248;2023-02-28T08:46:59;2.53;;;1.90;;
30147;SDS011;16960;49.404;8.248;2023-02-28T08:49:26;2.10;;;1.77;;
30147;SDS011;16960;49.404;8.248;2023-02-28T08:51:53;2.60;;;2.10;;
30147;SDS011;16960;49.404;8.248;2023-02-28T08:54:22;2.57;;;2.37;;
30147;SDS011;16960;49.404;8.248;2023-02-28T08:56:49;2.23;;;2.00;;
30147;SDS011;16960;49.404;8.248;2023-02-28T08:59:17;1.80;;;1.43;;
30147;SDS011;16960;49.404;8.248;2023-02-28T09:01:44;1.37;;;1.27;;
30147;SDS011;16960;49.404;8.248;2023-02-28T09:04:12;2.10;;;1.50;;
30147;SDS011;16960;49.404;8.248;2023-02-28T09:06:39;2.40;;;1.67;;
30147;SDS011;16960;49.404;8.248;2023-02-28T09:09:05;1.77;;;1.67;;
30147;SDS011;16960;49.404;8.248;2023-02-28T09:11:34;1.83;;;1.67;;
30147;SDS011;16960;49.404;8.248;2023-02-28T09:14:02;1.60;;;1.13;;
30147;SDS011;16960;49.404;8.248;2023-02-28T09:16:31;1.77;;;1.67;;
30147;SDS011;16960;49.404;8.248;2023-02-28T09:18:59;1.90;;;1.30;;
30147;SDS011;16960;49.404;8.248;2023-02-28T09:21:26;1.60;;;1.20;;
30147;SDS011;16960;49.404;8.248;2023-02-28T09:23:53;1.60;;;1.40;;
30147;SDS011;16960;49.404;8.248;2023-02-28T09:26:21;5.53;;;1.93;;
30147;SDS011;16960;49.404;8.248;2023-02-28T09:28:49;1.60;;;1.50;;
30147;SDS011;16960;49.404;8.248;2023-02-28T09:31:17;2.17;;;1.60;;
30147;SDS011;16960;49.404;8.248;2023-02-28T09:33:48;2.90;;;1.80;;
30147;SDS011;16960;49.404;8.248;2023-02-28T09:36:15;1.67;;;1.43;;
30147;SDS011;16960;49.404;8.248;2023-02-28T09:38:42;2.20;;;1.80;;
30147;SDS011;16960;49.404;8.248;2023-02-28T09:41:12;2.20;;;1.50;;
30147;SDS011;16960;49.404;8.248;2023-02-28T09:43:42;1.67;;;1.30;;
30147;SDS011;16960;49.404;8.248;2023-02-28T09:46:14;1.73;;;1.57;;
30147;SDS011;16960;49.404;8.248;2023-02-28T09:48:53;2.13;;;1.77;;
30147;SDS011;16960;49.404;8.248;2023-02-28T09:51:28;1.60;;;1.50;;
30147;SDS011;16960;49.404;8.248;2023-02-28T09:54:02;1.33;;;1.20;;
30147;SDS011;16960;49.404;8.248;2023-02-28T09:56:30;2.47;;;1.60;;
30147;SDS011;16960;49.404;8.248;2023-02-28T09:59:02;2.93;;;1.43;;
30147;SDS011;16960;49.404;8.248;2023-02-28T10:01:37;1.83;;;1.70;;
30147;SDS011;16960;49.404;8.248;2023-02-28T10:04:13;1.70;;;1.53;;
30147;SDS011;16960;49.404;8.248;2023-02-28T10:06:50;4.80;;;1.80;;
30147;SDS011;16960;49.404;8.248;2023-02-28T10:09:19;1.70;;;1.60;;
30147;SDS011;16960;49.404;8.248;2023-02-28T10:11:50;1.90;;;1.70;;
30147;SDS011;16960;49.404;8.248;2023-02-28T10:14:21;1.47;;;1.37;;
30147;SDS011;16960;49.404;8.248;2023-02-28T10:16:50;3.30;;;1.40;;
30147;SDS011;16960;49.404;8.248;2023-02-28T10:19:24;1.70;;;1.50;;
30147;SDS011;16960;49.404;8.248;2023-02-28T10:21:59;2.03;;;1.70;;
30147;SDS011;16960;49.404;8.248;2023-02-28T10:24:28;2.17;;;1.90;;
30147;SDS011;16960;49.404;8.248;2023-02-28T10:26:59;1.50;;;1.37;;
30147;SDS011;16960;49.404;8.248;2023-02-28T10:29:28;2.50;;;1.27;;
30147;SDS011;16960;49.404;8.248;2023-02-28T10:31:59;2.20;;;1.57;;
30147;SDS011;16960;49.404;8.248;2023-02-28T10:34:30;2.13;;;1.67;;
30147;SDS011;16960;49.404;8.248;2023-02-28T10:36:57;1.47;;;1.37;;
30147;SDS011;16960;49.404;8.248;2023-02-28T10:39:39;2.40;;;1.67;;
30147;SDS011;16960;49.404;8.248;2023-02-28T10:42:18;1.83;;;1.70;;
30147;SDS011;16960;49.404;8.248;2023-02-28T10:44:47;1.53;;;1.43;;
30147;SDS011;16960;49.404;8.248;2023-02-28T10:47:14;2.00;;;1.50;;
30147;SDS011;16960;49.404;8.248;2023-02-28T10:49:48;1.53;;;1.30;;
30147;SDS011;16960;49.404;8.248;2023-02-28T10:52:32;1.50;;;1.40;;
30147;SDS011;16960;49.404;8.248;2023-02-28T10:55:18;1.97;;;1.53;;
30147;SDS011;16960;49.404;8.248;2023-02-28T10:57:48;1.80;;;1.60;;
30147;SDS011;16960;49.404;8.248;2023-02-28T11:00:16;2.77;;;1.50;;
30147;SDS011;16960;49.404;8.248;2023-02-28T11:02:45;1.57;;;1.47;;
30147;SDS011;16960;49.404;8.248;2023-02-28T11:05:26;2.37;;;2.10;;
30147;SDS011;16960;49.404;8.248;2023-02-28T11:07:56;2.57;;;1.70;;
30147;SDS011;16960;49.404;8.248;2023-02-28T11:10:30;1.73;;;1.63;;
30147;SDS011;16960;49.404;8.248;2023-02-28T11:12:59;1.90;;;1.70;;
30147;SDS011;16960;49.404;8.248;2023-02-28T11:15:28;2.20;;;1.77;;
30147;SDS011;16960;49.404;8.248;2023-02-28T11:17:57;1.97;;;1.77;;
30147;SDS011;16960;49.404;8.248;2023-02-28T11:20:28;2.43;;;2.10;;
30147;SDS011;16960;49.404;8.248;2023-02-28T11:22:58;1.80;;;1.67;;
30147;SDS011;16960;49.404;8.248;2023-02-28T11:25:29;1.97;;;1.70;;
30147;SDS011;16960;49.404;8.248;2023-02-28T11:27:59;2.13;;;1.67;;
30147;SDS011;16960;49.404;8.248;2023-02-28T11:30:31;3.60;;;2.03;;
30147;SDS011;16960;49.404;8.248;2023-02-28T11:33:00;1.80;;;1.50;;
30147;SDS011;16960;49.404;8.248;2023-02-28T11:35:42;2.23;;;1.40;;
30147;SDS011;16960;49.404;8.248;2023-02-28T11:38:09;2.53;;;1.67;;
30147;SDS011;16960;49.404;8.248;2023-02-28T11:40:41;3.00;;;1.80;;
30147;SDS011;16960;49.404;8.248;2023-02-28T11:43:17;2.10;;;1.90;;
30147;SDS011;16960;49.404;8.248;2023-02-28T11:45:55;2.10;;;1.90;;
30147;SDS011;16960;49.404;8.248;2023-02-28T11:48:34;1.70;;;1.60;;
30147;SDS011;16960;49.404;8.248;2023-02-28T11:51:13;3.00;;;1.50;;
30147;SDS011;16960;49.404;8.248;2023-02-28T11:56:43;1.50;;;1.40;;
30147;SDS011;16960;49.404;8.248;2023-02-28T11:59:18;1.73;;;1.40;;
30147;SDS011;16960;49.404;8.248;2023-02-28T12:02:05;2.40;;;1.83;;
30147;SDS011;16960;49.404;8.248;2023-02-28T12:04:48;1.80;;;1.63;;
30147;SDS011;16960;49.404;8.248;2023-02-28T12:07:31;2.17;;;1.70;;
30147;SDS011;16960;49.404;8.248;2023-02-28T12:10:05;2.00;;;1.50;;
30147;SDS011;16960;49.404;8.248;2023-02-28T12:12:43;1.60;;;1.50;;
30147;SDS011;16960;49.404;8.248;2023-02-28T12:15:37;2.50;;;1.80;;
30147;SDS011;16960;49.404;8.248;2023-02-28T12:18:42;2.30;;;1.90;;
30147;SDS011;16960;49.404;8.248;2023-02-28T12:21:25;2.27;;;1.53;;
30147;SDS011;16960;49.404;8.248;2023-02-28T12:24:03;1.73;;;1.63;;
30147;SDS011;16960;49.404;8.248;2023-02-28T12:26:38;1.90;;;1.70;;
30147;SDS011;16960;49.404;8.248;2023-02-28T12:29:10;2.10;;;1.90;;
30147;SDS011;16960;49.404;8.248;2023-02-28T12:31:45;2.10;;;1.90;;
30147;SDS011;16960;49.404;8.248;2023-02-28T12:34:16;2.07;;;1.87;;
30147;SDS011;16960;49.404;8.248;2023-02-28T12:36:46;2.57;;;2.37;;
30147;SDS011;16960;49.404;8.248;2023-02-28T12:39:18;1.97;;;1.50;;
30147;SDS011;16960;49.404;8.248;2023-02-28T12:41:51;4.73;;;2.50;;
30147;SDS011;16960;49.404;8.248;2023-02-28T12:44:23;2.10;;;1.90;;
30147;SDS011;16960;49.404;8.248;2023-02-28T12:46:55;1.70;;;1.60;;
30147;SDS011;16960;49.404;8.248;2023-02-28T12:49:27;2.63;;;1.77;;
30147;SDS011;16960;49.404;8.248;2023-02-28T12:51:57;2.20;;;2.00;;
30147;SDS011;16960;49.404;8.248;2023-02-28T12:54:28;2.70;;;2.50;;
30147;SDS011;16960;49.404;8.248;2023-02-28T12:57:02;2.07;;;1.80;;
30147;SDS011;16960;49.404;8.248;2023-02-28T12:59:36;2.00;;;1.80;;
30147;SDS011;16960;49.404;8.248;2023-02-28T13:02:21;2.27;;;1.90;;
30147;SDS011;16960;49.404;8.248;2023-02-28T13:05:07;4.20;;;2.37;;
30147;SDS011;16960;49.404;8.248;2023-02-28T13:10:57;2.60;;;1.60;;
30147;SDS011;16960;49.404;8.248;2023-02-28T13:13:25;2.07;;;1.93;;
30147;SDS011;16960;49.404;8.248;2023-02-28T13:15:58;2.43;;;2.00;;
30147;SDS011;16960;49.404;8.248;2023-02-28T13:18:28;3.10;;;2.37;;
30147;SDS011;16960;49.404;8.248;2023-02-28T13:20:58;2.77;;;2.07;;
30147;SDS011;16960;49.404;8.248;2023-02-28T13:29:28;2.20;;;1.97;;
30147;SDS011;16960;49.404;8.248;2023-02-28T13:38:09;2.30;;;2.10;;
30147;SDS011;16960;49.404;8.248;2023-02-28T13:40:50;2.90;;;2.37;;
30147;SDS011;16960;49.404;8.248;2023-02-28T13:43:17;2.00;;;1.70;;
30147;SDS011;16960;49.404;8.248;2023-02-28T13:46:06;1.87;;;1.67;;
30147;SDS011;16960;49.404;8.248;2023-02-28T13:48:36;2.40;;;2.17;;
30147;SDS011;16960;49.404;8.248;2023-02-28T13:54:11;2.10;;;1.90;;
30147;SDS011;16960;49.404;8.248;2023-02-28T13:56:52;2.50;;;2.30;;
30147;SDS011;16960;49.404;8.248;2023-02-28T13:59:33;2.40;;;2.20;;
30147;SDS011;16960;49.404;8.248;2023-02-28T14:02:21;2.20;;;2.00;;
30147;SDS011;16960;49.404;8.248;2023-02-28T14:05:16;2.13;;;1.80;;
30147;SDS011;16960;49.404;8.248;2023-02-28T14:07:47;2.33;;;2.13;;
30147;SDS011;16960;49.404;8.248;2023-02-28T14:10:21;2.77;;;2.20;;
30147;SDS011;16960;49.404;8.248;2023-02-28T14:12:52;3.30;;;2.80;;
30147;SDS011;16960;49.404;8.248;2023-02-28T14:18:33;2.30;;;2.10;;
30147;SDS011;16960;49.404;8.248;2023-02-28T14:21:03;3.27;;;2.60;;
30147;SDS011;16960;49.404;8.248;2023-02-28T14:23:49;2.73;;;2.23;;
30147;SDS011;16960;49.404;8.248;2023-02-28T14:26:49;2.20;;;2.00;;
30147;SDS011;16960;49.404;8.248;2023-02-28T14:29:44;1.90;;;1.70;;
30147;SDS011;16960;49.404;8.248;2023-02-28T14:32:40;2.67;;;2.27;;
30147;SDS011;16960;49.404;8.248;2023-02-28T14:35:22;3.60;;;2.20;;
30147;SDS011;16960;49.404;8.248;2023-02-28T14:38:06;2.40;;;2.20;;
30147;SDS011;16960;49.404;8.248;2023-02-28T14:40:40;1.90;;;1.80;;
30147;SDS011;16960;49.404;8.248;2023-02-28T14:43:16;1.80;;;1.70;;
30147;SDS011;16960;49.404;8.248;2023-02-28T14:45:49;2.37;;;2.20;;
30147;SDS011;16960;49.404;8.248;2023-02-28T14:48:17;2.40;;;2.20;;
30147;SDS011;16960;49.404;8.248;2023-02-28T14:50:49;2.90;;;2.23;;
30147;SDS011;16960;49.404;8.248;2023-02-28T14:53:19;3.00;;;2.70;;
30147;SDS011;16960;49.404;8.248;2023-02-28T14:55:48;2.97;;;2.77;;
30147;SDS011;16960;49.404;8.248;2023-02-28T14:58:22;2.63;;;2.43;;
30147;SDS011;16960;49.404;8.248;2023-02-28T15:00:52;3.17;;;2.40;;
30147;SDS011;16960;49.404;8.248;2023-02-28T15:03:21;2.50;;;2.30;;
30147;SDS011;16960;49.404;8.248;2023-02-28T15:05:54;2.50;;;2.30;;
30147;SDS011;16960;49.404;8.248;2023-02-28T15:08:23;2.60;;;2.40;;
30147;SDS011;16960;49.404;8.248;2023-02-28T15:10:54;2.53;;;2.33;;
30147;SDS011;16960;49.404;8.248;2023-02-28T15:13:23;2.40;;;2.20;;
30147;SDS011;16960;49.404;8.248;2023-02-28T15:15:57;2.10;;;2.00;;
30147;SDS011;16960;49.404;8.248;2023-02-28T15:18:29;3.83;;;2.70;;
30147;SDS011;16960;49.404;8.248;2023-02-28T15:21:03;2.63;;;2.30;;
30147;SDS011;16960;49.404;8.248;2023-02-28T15:23:34;2.10;;;1.90;;
30147;SDS011;16960;49.404;8.248;2023-02-28T15:26:02;2.70;;;2.50;;
30147;SDS011;16960;49.404;8.248;2023-02-28T15:28:29;2.80;;;2.60;;
30147;SDS011;16960;49.404;8.248;2023-02-28T15:30:57;2.73;;;2.53;;
30147;SDS011;16960;49.404;8.248;2023-02-28T15:33:26;2.70;;;2.50;;
30147;SDS011;16960;49.404;8.248;2023-02-28T15:36:05;5.20;;;2.27;;
30147;SDS011;16960;49.404;8.248;2023-02-28T15:38:37;2.30;;;2.10;;
30147;SDS011;16960;49.404;8.248;2023-02-28T15:41:03;3.87;;;2.60;;